sensor_id;sensor_type;location;lat;lon;timestamp;pressure;altitude;pressure_sealevel;temperature;humidity
54389;BME280;40975;50.390;8.640;2024-02-04T00:00:07;99917.16;;;8.13;100.00
54389;BME280;40975;50.390;8.640;2024-02-04T00:02:36;99919.94;;;8.12;100.00
54389;BME280;40975;50.390;8.640;2024-02-04T00:05:03;99912.94;;;8.11;100.00
54389;BME280;40975;50.390;8.640;2024-02-04T00:07:28;99915.59;;;8.11;100.00
54389;BME280;40975;50.390;8.640;2024-02-04T00:09:53;99909.69;;;8.07;100.00
54389;BME280;40975;50.390;8.640;2024-02-04T00:12:20;99926.50;;;8.06;100.00
54389;BME280;40975;50.390;8.640;2024-02-04T00:14:45;99914.09;;;8.06;100.00
54389;BME280;40975;50.390;8.640;2024-02-04T00:17:10;99919.31;;;8.08;100.00
54389;BME280;40975;50.390;8.640;2024-02-04T00:19:36;99912.31;;;8.07;100.00
54389;BME280;40975;50.390;8.640;2024-02-04T00:22:01;99917.63;;;8.07;100.00
54389;BME280;40975;50.390;8.640;2024-02-04T00:24:26;99907.03;;;8.07;100.00
54389;BME280;40975;50.390;8.640;2024-02-04T00:26:52;99899.19;;;8.05;100.00
54389;BME280;40975;50.390;8.640;2024-02-04T00:29:17;99887.91;;;8.03;100.00
54389;BME280;40975;50.390;8.640;2024-02-04T00:31:42;99885.16;;;8.05;100.00
54389;BME280;40975;50.390;8.640;2024-02-04T00:34:07;99879.13;;;8.03;100.00
54389;BME280;40975;50.390;8.640;2024-02-04T00:36:33;99888.22;;;7.99;100.00
54389;BME280;40975;50.390;8.640;2024-02-04T00:38:58;99889.19;;;7.98;100.00
54389;BME280;40975;50.390;8.640;2024-02-04T00:41:24;99892.69;;;7.98;100.00
54389;BME280;40975;50.390;8.640;2024-02-04T00:43:49;99874.50;;;7.93;100.00
54389;BME280;40975;50.390;8.640;2024-02-04T00:46:15;99875.34;;;7.94;100.00
54389;BME280;40975;50.390;8.640;2024-02-04T00:48:40;99879.66;;;7.95;100.00
54389;BME280;40975;50.390;8.640;2024-02-04T00:51:06;99883.28;;;7.94;100.00
54389;BME280;40975;50.390;8.640;2024-02-04T00:53:31;99884.88;;;7.97;100.00
54389;BME280;40975;50.390;8.640;2024-02-04T00:56:03;99893.63;;;7.97;100.00
54389;BME280;40975;50.390;8.640;2024-02-04T00:58:29;99890.03;;;7.98;100.00
54389;BME280;40975;50.390;8.640;2024-02-04T01:00:55;99888.97;;;8.01;100.00
54389;BME280;40975;50.390;8.640;2024-02-04T01:03:21;99874.78;;;8.02;100.00
54389;BME280;40975;50.390;8.640;2024-02-04T01:05:46;99892.34;;;8.03;100.00
54389;BME280;40975;50.390;8.640;2024-02-04T01:08:11;99883.47;;;8.04;100.00
54389;BME280;40975;50.390;8.640;2024-02-04T01:10:37;99878.28;;;8.02;100.00
54389;BME280;40975;50.390;8.640;2024-02-04T01:13:03;99884.63;;;8.00;100.00
54389;BME280;40975;50.390;8.640;2024-02-04T01:15:29;99886.09;;;8.04;100.00
54389;BME280;40975;50.390;8.640;2024-02-04T01:17:54;99893.91;;;8.05;100.00
54389;BME280;40975;50.390;8.640;2024-02-04T01:20:19;99887.91;;;8.03;100.00
54389;BME280;40975;50.390;8.640;2024-02-04T01:22:45;99885.16;;;8.05;100.00
54389;BME280;40975;50.390;8.640;2024-02-04T01:25:10;99893.47;;;8.12;100.00
54389;BME280;40975;50.390;8.640;2024-02-04T01:27:35;99905.09;;;8.09;100.00
54389;BME280;40975;50.390;8.640;2024-02-04T01:30:00;99899.38;;;8.15;100.00
54389;BME280;40975;50.390;8.640;2024-02-04T01:32:26;99906.47;;;8.15;100.00
54389;BME280;40975;50.390;8.640;2024-02-04T01:34:52;99898.78;;;8.12;100.00
54389;BME280;40975;50.390;8.640;2024-02-04T01:37:17;99895.19;;;8.13;100.00
54389;BME280;40975;50.390;8.640;2024-02-04T01:39:43;99903.19;;;8.11;100.00
54389;BME280;40975;50.390;8.640;2024-02-04T01:42:08;99894.44;;;8.11;100.00
54389;BME280;40975;50.390;8.640;2024-02-04T01:44:34;99902.25;;;8.12;100.00
54389;BME280;40975;50.390;8.640;2024-02-04T01:46:59;99908.50;;;8.11;100.00
54389;BME280;40975;50.390;8.640;2024-02-04T01:49:25;99903.19;;;8.11;100.00
54389;BME280;40975;50.390;8.640;2024-02-04T01:51:51;99902.25;;;8.12;100.00
54389;BME280;40975;50.390;8.640;2024-02-04T01:54:17;99896.00;;;8.13;100.00
54389;BME280;40975;50.390;8.640;2024-02-04T01:56:43;99905.34;;;8.06;100.00
54389;BME280;40975;50.390;8.640;2024-02-04T01:59:12;99898.16;;;8.08;100.00
54389;BME280;40975;50.390;8.640;2024-02-04T02:01:38;99914.84;;;8.08;100.00
54389;BME280;40975;50.390;8.640;2024-02-04T02:04:04;99899.19;;;8.05;100.00
54389;BME280;40975;50.390;8.640;2024-02-04T02:06:31;99903.88;;;8.02;100.00
54389;BME280;40975;50.390;8.640;2024-02-04T02:08:59;99897.75;;;8.01;100.00
54389;BME280;40975;50.390;8.640;2024-02-04T02:11:40;99899.66;;;7.99;100.00
54389;BME280;40975;50.390;8.640;2024-02-04T02:14:11;99882.44;;;7.93;100.00
54389;BME280;40975;50.390;8.640;2024-02-04T02:16:38;99883.38;;;7.92;100.00
54389;BME280;40975;50.390;8.640;2024-02-04T02:19:14;99875.69;;;7.89;100.00
54389;BME280;40975;50.390;8.640;2024-02-04T02:21:56;99868.72;;;7.88;100.00
54389;BME280;40975;50.390;8.640;2024-02-04T02:24:31;99874.22;;;7.85;100.00
54389;BME280;40975;50.390;8.640;2024-02-04T02:26:57;99872.66;;;7.83;100.00
54389;BME280;40975;50.390;8.640;2024-02-04T02:29:24;99863.13;;;7.80;100.00
54389;BME280;40975;50.390;8.640;2024-02-04T02:31:49;99862.28;;;7.80;100.00
54389;BME280;40975;50.390;8.640;2024-02-04T02:34:15;99849.41;;;7.75;100.00
54389;BME280;40975;50.390;8.640;2024-02-04T02:36:45;99854.50;;;7.78;100.00
54389;BME280;40975;50.390;8.640;2024-02-04T02:39:23;99850.25;;;7.75;100.00
54389;BME280;40975;50.390;8.640;2024-02-04T02:41:50;99849.53;;;7.73;100.00
54389;BME280;40975;50.390;8.640;2024-02-04T02:44:20;99842.66;;;7.71;100.00
54389;BME280;40975;50.390;8.640;2024-02-04T02:46:47;99845.09;;;7.74;100.00
54389;BME280;40975;50.390;8.640;2024-02-04T02:49:13;99831.25;;;7.70;100.00
54389;BME280;40975;50.390;8.640;2024-02-04T02:51:38;99834.97;;;7.68;100.00
54389;BME280;40975;50.390;8.640;2024-02-04T02:54:04;99834.97;;;7.68;100.00
54389;BME280;40975;50.390;8.640;2024-02-04T02:56:29;99824.41;;;7.68;100.00
54389;BME280;40975;50.390;8.640;2024-02-04T02:58:54;99823.53;;;7.67;100.00
54389;BME280;40975;50.390;8.640;2024-02-04T03:01:20;99820.91;;;7.67;100.00
54389;BME280;40975;50.390;8.640;2024-02-04T03:03:47;99807.19;;;7.62;100.00
54389;BME280;40975;50.390;8.640;2024-02-04T03:06:12;99821.84;;;7.66;100.00
54389;BME280;40975;50.390;8.640;2024-02-04T03:08:37;99817.50;;;7.65;100.00
54389;BME280;40975;50.390;8.640;2024-02-04T03:11:03;99821.97;;;7.65;100.00
54389;BME280;40975;50.390;8.640;2024-02-04T03:13:28;99816.69;;;7.65;100.00
54389;BME280;40975;50.390;8.640;2024-02-04T03:15:53;99832.53;;;7.65;100.00
54389;BME280;40975;50.390;8.640;2024-02-04T03:18:19;99836.00;;;7.65;100.00
54389;BME280;40975;50.390;8.640;2024-02-04T03:20:44;99830.50;;;7.68;100.00
54389;BME280;40975;50.390;8.640;2024-02-04T03:23:09;99820.91;;;7.67;100.00
54389;BME280;40975;50.390;8.640;2024-02-04T03:25:35;99828.94;;;7.66;100.00
54389;BME280;40975;50.390;8.640;2024-02-04T03:28:00;99830.50;;;7.68;100.00
54389;BME280;40975;50.390;8.640;2024-02-04T03:30:26;99821.84;;;7.66;100.00
54389;BME280;40975;50.390;8.640;2024-02-04T03:32:51;99804.63;;;7.60;100.00
54389;BME280;40975;50.390;8.640;2024-02-04T03:35:16;99804.31;;;7.65;100.00
54389;BME280;40975;50.390;8.640;2024-02-04T03:37:42;99803.34;;;7.66;100.00
54389;BME280;40975;50.390;8.640;2024-02-04T03:40:08;99803.47;;;7.65;100.00
54389;BME280;40975;50.390;8.640;2024-02-04T03:42:34;99799.97;;;7.64;100.00
54389;BME280;40975;50.390;8.640;2024-02-04T03:45:00;99800.09;;;7.62;100.00
54389;BME280;40975;50.390;8.640;2024-02-04T03:47:28;99810.53;;;7.64;100.00
54389;BME280;40975;50.390;8.640;2024-02-04T03:49:53;99797.31;;;7.64;100.00
54389;BME280;40975;50.390;8.640;2024-02-04T03:52:18;99800.94;;;7.63;100.00
54389;BME280;40975;50.390;8.640;2024-02-04T03:54:44;99799.25;;;7.62;100.00
54389;BME280;40975;50.390;8.640;2024-02-04T03:57:09;99794.06;;;7.60;100.00
54389;BME280;40975;50.390;8.640;2024-02-04T03:59:34;99801.16;;;7.60;100.00
54389;BME280;40975;50.390;8.640;2024-02-04T04:02:00;99797.66;;;7.59;100.00
54389;BME280;40975;50.390;8.640;2024-02-04T04:04:25;99801.91;;;7.62;100.00
54389;BME280;40975;50.390;8.640;2024-02-04T04:06:51;99809.72;;;7.63;100.00
54389;BME280;40975;50.390;8.640;2024-02-04T04:09:16;99803.34;;;7.66;100.00
54389;BME280;40975;50.390;8.640;2024-02-04T04:11:42;99799.75;;;7.67;100.00
54389;BME280;40975;50.390;8.640;2024-02-04T04:14:07;99799.75;;;7.67;100.00
54389;BME280;40975;50.390;8.640;2024-02-04T04:16:32;99790.06;;;7.68;100.00
54389;BME280;40975;50.390;8.640;2024-02-04T04:18:58;99791.72;;;7.69;100.00
54389;BME280;40975;50.390;8.640;2024-02-04T04:21:26;99797.84;;;7.69;100.00
54389;BME280;40975;50.390;8.640;2024-02-04T04:23:52;99799.88;;;7.66;100.00
54389;BME280;40975;50.390;8.640;2024-02-04T04:26:17;99798.19;;;7.65;100.00
54389;BME280;40975;50.390;8.640;2024-02-04T04:28:42;99794.69;;;7.64;100.00
54389;BME280;40975;50.390;8.640;2024-02-04T04:31:08;99796.78;;;7.72;100.00
54389;BME280;40975;50.390;8.640;2024-02-04T04:33:33;99795.81;;;7.73;100.00
54389;BME280;40975;50.390;8.640;2024-02-04T04:35:58;99784.31;;;7.74;100.00
54389;BME280;40975;50.390;8.640;2024-02-04T04:38:23;99795.50;;;7.77;100.00
54389;BME280;40975;50.390;8.640;2024-02-04T04:40:49;99794.03;;;7.73;100.00
54389;BME280;40975;50.390;8.640;2024-02-04T04:43:14;99793.94;;;7.75;100.00
54389;BME280;40975;50.390;8.640;2024-02-04T04:45:40;99797.53;;;7.74;100.00
54389;BME280;40975;50.390;8.640;2024-02-04T04:48:05;99795.63;;;7.76;100.00
54389;BME280;40975;50.390;8.640;2024-02-04T04:50:33;99792.72;;;7.79;100.00
54389;BME280;40975;50.390;8.640;2024-02-04T04:52:58;99799.69;;;7.80;100.00
54389;BME280;40975;50.390;8.640;2024-02-04T04:55:23;99794.31;;;7.82;100.00
54389;BME280;40975;50.390;8.640;2024-02-04T04:57:49;99794.06;;;7.85;100.00
54389;BME280;40975;50.390;8.640;2024-02-04T05:00:15;99781.81;;;7.84;100.00
54389;BME280;40975;50.390;8.640;2024-02-04T05:02:40;99785.31;;;7.84;100.00
54389;BME280;40975;50.390;8.640;2024-02-04T05:05:06;99792.19;;;7.87;100.00
54389;BME280;40975;50.390;8.640;2024-02-04T05:07:31;99787.63;;;7.89;100.00
54389;BME280;40975;50.390;8.640;2024-02-04T05:09:56;99778.34;;;7.83;100.00
54389;BME280;40975;50.390;8.640;2024-02-04T05:12:22;99777.53;;;7.83;100.00
54389;BME280;40975;50.390;8.640;2024-02-04T05:14:47;99772.44;;;7.80;100.00
54389;BME280;40975;50.390;8.640;2024-02-04T05:17:12;99781.31;;;7.78;100.00
54389;BME280;40975;50.390;8.640;2024-02-04T05:19:38;99782.06;;;7.81;100.00
54389;BME280;40975;50.390;8.640;2024-02-04T05:22:03;99786.41;;;7.82;100.00
54389;BME280;40975;50.390;8.640;2024-02-04T05:24:28;99776.22;;;7.88;100.00
54389;BME280;40975;50.390;8.640;2024-02-04T05:26:54;99771.38;;;7.82;100.00
54389;BME280;40975;50.390;8.640;2024-02-04T05:29:19;99770.97;;;7.75;100.00
54389;BME280;40975;50.390;8.640;2024-02-04T05:31:45;99768.00;;;7.80;100.00
54389;BME280;40975;50.390;8.640;2024-02-04T05:34:10;99784.59;;;7.82;100.00
54389;BME280;40975;50.390;8.640;2024-02-04T05:36:36;99784.38;;;7.85;100.00
54389;BME280;40975;50.390;8.640;2024-02-04T05:39:12;99782.69;;;7.84;100.00
54389;BME280;40975;50.390;8.640;2024-02-04T05:41:38;99782.81;;;7.83;100.00
54389;BME280;40975;50.390;8.640;2024-02-04T05:44:04;99781.13;;;7.82;100.00
54389;BME280;40975;50.390;8.640;2024-02-04T05:46:29;99792.03;;;7.77;100.00
54389;BME280;40975;50.390;8.640;2024-02-04T05:48:54;99793.59;;;7.80;100.00
54389;BME280;40975;50.390;8.640;2024-02-04T05:51:19;99791.16;;;7.76;100.00
54389;BME280;40975;50.390;8.640;2024-02-04T05:53:45;99786.81;;;7.75;100.00
54389;BME280;40975;50.390;8.640;2024-02-04T05:56:11;99798.13;;;7.77;100.00
54389;BME280;40975;50.390;8.640;2024-02-04T05:58:36;99797.81;;;7.82;100.00
54389;BME280;40975;50.390;8.640;2024-02-04T06:01:02;99796.97;;;7.82;100.00
54389;BME280;40975;50.390;8.640;2024-02-04T06:03:27;99786.28;;;7.83;100.00
54389;BME280;40975;50.390;8.640;2024-02-04T06:05:53;99798.53;;;7.84;100.00
54389;BME280;40975;50.390;8.640;2024-02-04T06:08:18;99794.06;;;7.85;100.00
54389;BME280;40975;50.390;8.640;2024-02-04T06:10:43;99798.75;;;7.81;100.00
54389;BME280;40975;50.390;8.640;2024-02-04T06:13:09;99788.53;;;7.76;100.00
54389;BME280;40975;50.390;8.640;2024-02-04T06:15:34;99791.16;;;7.76;100.00
54389;BME280;40975;50.390;8.640;2024-02-04T06:18:01;99791.91;;;7.78;100.00
54389;BME280;40975;50.390;8.640;2024-02-04T06:20:26;99772.78;;;7.75;100.00
54389;BME280;40975;50.390;8.640;2024-02-04T06:22:51;99782.41;;;7.76;100.00
54389;BME280;40975;50.390;8.640;2024-02-04T06:25:17;99799.34;;;7.73;100.00
54389;BME280;40975;50.390;8.640;2024-02-04T06:27:42;99793.06;;;7.74;100.00
54389;BME280;40975;50.390;8.640;2024-02-04T06:30:08;99793.19;;;7.73;100.00
54389;BME280;40975;50.390;8.640;2024-02-04T06:32:33;99790.53;;;7.73;100.00
54389;BME280;40975;50.390;8.640;2024-02-04T06:34:58;99770.56;;;7.69;100.00
54389;BME280;40975;50.390;8.640;2024-02-04T06:37:24;99778.41;;;7.70;100.00
54389;BME280;40975;50.390;8.640;2024-02-04T06:39:50;99788.84;;;7.72;100.00
54389;BME280;40975;50.390;8.640;2024-02-04T06:42:15;99786.81;;;7.75;100.00
54389;BME280;40975;50.390;8.640;2024-02-04T06:44:47;99781.53;;;7.75;100.00
54389;BME280;40975;50.390;8.640;2024-02-04T06:47:12;99775.31;;;7.76;100.00
54389;BME280;40975;50.390;8.640;2024-02-04T06:49:39;99772.78;;;7.75;100.00
54389;BME280;40975;50.390;8.640;2024-02-04T06:52:05;99773.88;;;7.72;100.00
54389;BME280;40975;50.390;8.640;2024-02-04T06:54:30;99777.94;;;7.76;100.00
54389;BME280;40975;50.390;8.640;2024-02-04T06:56:56;99789.38;;;7.77;100.00
54389;BME280;40975;50.390;8.640;2024-02-04T06:59:21;99779.03;;;7.74;100.00
54389;BME280;40975;50.390;8.640;2024-02-04T07:01:46;99789.59;;;7.74;100.00
54389;BME280;40975;50.390;8.640;2024-02-04T07:04:12;99793.06;;;7.74;100.00
54389;BME280;40975;50.390;8.640;2024-02-04T07:06:37;99800.16;;;7.74;100.00
54389;BME280;40975;50.390;8.640;2024-02-04T07:09:03;99803.75;;;7.73;100.00
54389;BME280;40975;50.390;8.640;2024-02-04T07:11:28;99805.94;;;7.79;100.00
54389;BME280;40975;50.390;8.640;2024-02-04T07:13:53;99797.31;;;7.77;100.00
54389;BME280;40975;50.390;8.640;2024-02-04T07:16:27;99800.03;;;7.75;100.00
54389;BME280;40975;50.390;8.640;2024-02-04T07:18:52;99794.66;;;7.77;100.00
54389;BME280;40975;50.390;8.640;2024-02-04T07:21:17;99791.78;;;7.80;100.00
54389;BME280;40975;50.390;8.640;2024-02-04T07:23:43;99790.81;;;7.81;100.00
54389;BME280;40975;50.390;8.640;2024-02-04T07:26:08;99787.09;;;7.84;100.00
54389;BME280;40975;50.390;8.640;2024-02-04T07:28:34;99795.91;;;7.84;100.00
54389;BME280;40975;50.390;8.640;2024-02-04T07:30:59;99791.22;;;7.88;100.00
54389;BME280;40975;50.390;8.640;2024-02-04T07:33:25;99792.91;;;7.89;100.00
54389;BME280;40975;50.390;8.640;2024-02-04T07:35:50;99802.75;;;7.87;100.00
54389;BME280;40975;50.390;8.640;2024-02-04T07:38:16;99790.28;;;7.89;100.00
54389;BME280;40975;50.390;8.640;2024-02-04T07:40:41;99791.97;;;7.90;100.00
54389;BME280;40975;50.390;8.640;2024-02-04T07:43:07;99788.47;;;7.89;100.00
54389;BME280;40975;50.390;8.640;2024-02-04T07:45:32;99781.03;;;7.94;100.00
54389;BME280;40975;50.390;8.640;2024-02-04T07:47:58;99767.16;;;8.04;100.00
54389;BME280;40975;50.390;8.640;2024-02-04T07:50:23;99782.06;;;8.05;100.00
54389;BME280;40975;50.390;8.640;2024-02-04T07:52:48;99783.97;;;8.03;100.00
54389;BME280;40975;50.390;8.640;2024-02-04T07:55:14;99783.50;;;8.09;100.00
54389;BME280;40975;50.390;8.640;2024-02-04T07:57:40;99781.84;;;8.08;100.00
54389;BME280;40975;50.390;8.640;2024-02-04T08:00:05;99786.78;;;8.13;100.00
54389;BME280;40975;50.390;8.640;2024-02-04T08:02:37;99779.81;;;8.12;100.00
54389;BME280;40975;50.390;8.640;2024-02-04T08:05:04;99775.22;;;8.14;100.00
54389;BME280;40975;50.390;8.640;2024-02-04T08:07:29;99770.06;;;8.12;100.00
54389;BME280;40975;50.390;8.640;2024-02-04T08:09:54;99754.41;;;8.09;100.00
54389;BME280;40975;50.390;8.640;2024-02-04T08:12:20;99763.81;;;8.13;100.00
54389;BME280;40975;50.390;8.640;2024-02-04T08:14:45;99754.06;;;8.14;100.00
54389;BME280;40975;50.390;8.640;2024-02-04T08:17:11;99758.91;;;8.20;100.00
54389;BME280;40975;50.390;8.640;2024-02-04T08:19:36;99756.25;;;8.20;100.00
54389;BME280;40975;50.390;8.640;2024-02-04T08:22:01;99753.75;;;8.30;100.00
54389;BME280;40975;50.390;8.640;2024-02-04T08:24:27;99774.47;;;8.36;100.00
54389;BME280;40975;50.390;8.640;2024-02-04T08:26:54;99771.34;;;8.42;100.00
54389;BME280;40975;50.390;8.640;2024-02-04T08:29:20;99761.72;;;8.41;100.00
54389;BME280;40975;50.390;8.640;2024-02-04T08:31:45;99765.50;;;8.50;100.00
54389;BME280;40975;50.390;8.640;2024-02-04T08:34:10;99763.47;;;8.53;100.00
54389;BME280;40975;50.390;8.640;2024-02-04T08:36:35;99758.19;;;8.65;100.00
54389;BME280;40975;50.390;8.640;2024-02-04T08:39:01;99766.13;;;8.65;100.00
54389;BME280;40975;50.390;8.640;2024-02-04T08:41:26;99744.47;;;8.71;100.00
54389;BME280;40975;50.390;8.640;2024-02-04T08:43:51;99751.69;;;8.80;100.00
54389;BME280;40975;50.390;8.640;2024-02-04T08:46:17;99745.69;;;8.90;100.00
54389;BME280;40975;50.390;8.640;2024-02-04T08:48:42;99746.78;;;8.87;100.00
54389;BME280;40975;50.390;8.640;2024-02-04T08:51:11;99757.00;;;8.80;100.00
54389;BME280;40975;50.390;8.640;2024-02-04T08:53:38;99757.13;;;8.79;100.00
54389;BME280;40975;50.390;8.640;2024-02-04T08:56:05;99759.25;;;8.74;100.00
54389;BME280;40975;50.390;8.640;2024-02-04T08:58:30;99751.59;;;8.70;100.00
54389;BME280;40975;50.390;8.640;2024-02-04T09:00:56;99749.41;;;8.76;100.00
54389;BME280;40975;50.390;8.640;2024-02-04T09:03:21;99760.13;;;8.74;100.00
54389;BME280;40975;50.390;8.640;2024-02-04T09:05:46;99762.28;;;8.80;100.00
54389;BME280;40975;50.390;8.640;2024-02-04T09:08:12;99762.41;;;8.79;100.00
54389;BME280;40975;50.390;8.640;2024-02-04T09:10:37;99758.81;;;8.80;100.00
54389;BME280;40975;50.390;8.640;2024-02-04T09:13:02;99760.22;;;8.84;100.00
54389;BME280;40975;50.390;8.640;2024-02-04T09:15:28;99761.44;;;8.80;100.00
54389;BME280;40975;50.390;8.640;2024-02-04T09:17:53;99756.41;;;8.88;100.00
54389;BME280;40975;50.390;8.640;2024-02-04T09:20:18;99766.25;;;8.97;100.00
54389;BME280;40975;50.390;8.640;2024-02-04T09:22:44;99755.22;;;8.92;100.00
54389;BME280;40975;50.390;8.640;2024-02-04T09:25:09;99747.97;;;8.94;100.00
54389;BME280;40975;50.390;8.640;2024-02-04T09:27:34;99743.28;;;8.98;100.00
54389;BME280;40975;50.390;8.640;2024-02-04T09:30:00;99752.06;;;9.10;100.00
54389;BME280;40975;50.390;8.640;2024-02-04T09:32:25;99755.53;;;9.10;100.00
54389;BME280;40975;50.390;8.640;2024-02-04T09:34:50;99752.06;;;8.98;100.00
54389;BME280;40975;50.390;8.640;2024-02-04T09:37:16;99755.44;;;8.89;100.00
54389;BME280;40975;50.390;8.640;2024-02-04T09:39:41;99747.13;;;8.94;100.00
54389;BME280;40975;50.390;8.640;2024-02-04T09:42:07;99749.28;;;8.89;100.00
54389;BME280;40975;50.390;8.640;2024-02-04T09:44:32;99757.22;;;9.00;100.00
54389;BME280;40975;50.390;8.640;2024-02-04T09:46:58;99752.91;;;8.99;100.00
54389;BME280;40975;50.390;8.640;2024-02-04T09:49:27;99750.97;;;9.01;100.00
54389;BME280;40975;50.390;8.640;2024-02-04T09:51:52;99751.84;;;9.01;100.00
54389;BME280;40975;50.390;8.640;2024-02-04T09:54:18;99742.56;;;9.07;100.00
54389;BME280;40975;50.390;8.640;2024-02-04T09:56:46;99751.34;;;9.19;100.00
54389;BME280;40975;50.390;8.640;2024-02-04T09:59:12;99756.13;;;9.25;100.00
54389;BME280;40975;50.390;8.640;2024-02-04T10:01:38;99745.44;;;9.15;100.00
54389;BME280;40975;50.390;8.640;2024-02-04T10:04:04;99758.41;;;9.18;100.00
54389;BME280;40975;50.390;8.640;2024-02-04T10:06:29;99759.50;;;9.16;100.00
54389;BME280;40975;50.390;8.640;2024-02-04T10:08:54;99764.34;;;9.11;100.00
54389;BME280;40975;50.390;8.640;2024-02-04T10:11:20;99768.06;;;9.20;100.00
54389;BME280;40975;50.390;8.640;2024-02-04T10:13:47;99747.59;;;9.10;100.00
54389;BME280;40975;50.390;8.640;2024-02-04T10:16:13;99762.16;;;9.16;100.00
54389;BME280;40975;50.390;8.640;2024-02-04T10:18:46;99760.09;;;9.20;100.00
54389;BME280;40975;50.390;8.640;2024-02-04T10:21:19;99747.22;;;9.03;100.00
54389;BME280;40975;50.390;8.640;2024-02-04T10:23:48;99748.69;;;8.96;100.00
54389;BME280;40975;50.390;8.640;2024-02-04T10:26:14;99748.22;;;8.91;100.00
54389;BME280;40975;50.390;8.640;2024-02-04T10:28:39;99747.72;;;8.97;100.00
54389;BME280;40975;50.390;8.640;2024-02-04T10:31:08;99743.41;;;9.08;100.00
54389;BME280;40975;50.390;8.640;2024-02-04T10:33:34;99745.66;;;9.24;100.00
54389;BME280;40975;50.390;8.640;2024-02-04T10:35:59;99737.13;;;9.20;100.00
54389;BME280;40975;50.390;8.640;2024-02-04T10:38:25;99736.38;;;9.29;100.00
54389;BME280;40975;50.390;8.640;2024-02-04T10:40:54;99739.56;;;9.12;100.00
54389;BME280;40975;50.390;8.640;2024-02-04T10:43:20;99741.25;;;9.13;100.00
54389;BME280;40975;50.390;8.640;2024-02-04T10:45:46;99751.84;;;9.01;100.00
54389;BME280;40975;50.390;8.640;2024-02-04T10:48:15;99744.50;;;9.05;100.00
54389;BME280;40975;50.390;8.640;2024-02-04T10:50:46;99735.31;;;9.09;100.00
54389;BME280;40975;50.390;8.640;2024-02-04T10:53:14;99737.13;;;9.20;100.00
54389;BME280;40975;50.390;8.640;2024-02-04T10:55:41;99742.19;;;9.23;100.00
54389;BME280;40975;50.390;8.640;2024-02-04T10:58:08;99736.63;;;9.26;100.00
54389;BME280;40975;50.390;8.640;2024-02-04T11:00:34;99732.28;;;9.25;100.00
54389;BME280;40975;50.390;8.640;2024-02-04T11:03:00;99734.31;;;9.44;100.00
54389;BME280;40975;50.390;8.640;2024-02-04T11:05:28;99737.28;;;9.62;100.00
54389;BME280;40975;50.390;8.640;2024-02-04T11:07:54;99742.72;;;9.49;100.00
54389;BME280;40975;50.390;8.640;2024-02-04T11:10:20;99736.09;;;9.44;100.00
54389;BME280;40975;50.390;8.640;2024-02-04T11:12:47;99736.59;;;9.49;100.00
54389;BME280;40975;50.390;8.640;2024-02-04T11:15:14;99735.13;;;9.56;100.00
54389;BME280;40975;50.390;8.640;2024-02-04T11:23:21;99728.31;;;10.07;100.00
54389;BME280;40975;50.390;8.640;2024-02-04T11:25:53;99722.81;;;10.63;100.00
54389;BME280;40975;50.390;8.640;2024-02-04T11:28:21;99719.59;;;11.00;100.00
54389;BME280;40975;50.390;8.640;2024-02-04T11:30:47;99709.00;;;10.79;100.00
54389;BME280;40975;50.390;8.640;2024-02-04T11:33:20;99708.53;;;10.64;100.00
54389;BME280;40975;50.390;8.640;2024-02-04T11:35:47;99708.38;;;10.34;100.00
54389;BME280;40975;50.390;8.640;2024-02-04T11:38:17;99709.53;;;10.20;100.00
54389;BME280;40975;50.390;8.640;2024-02-04T11:40:42;99703.81;;;10.04;100.00
54389;BME280;40975;50.390;8.640;2024-02-04T11:43:12;99696.59;;;10.06;100.00
54389;BME280;40975;50.390;8.640;2024-02-04T11:45:41;99693.50;;;10.01;100.00
54389;BME280;40975;50.390;8.640;2024-02-04T11:48:07;99707.00;;;9.98;100.00
54389;BME280;40975;50.390;8.640;2024-02-04T11:50:33;99704.41;;;9.86;100.00
54389;BME280;40975;50.390;8.640;2024-02-04T11:53:06;99688.50;;;9.86;100.00
54389;BME280;40975;50.390;8.640;2024-02-04T11:55:32;99691.13;;;9.86;100.00
54389;BME280;40975;50.390;8.640;2024-02-04T11:57:57;99690.38;;;9.95;100.00
54389;BME280;40975;50.390;8.640;2024-02-04T12:00:23;99679.69;;;10.49;100.00
54389;BME280;40975;50.390;8.640;2024-02-04T12:02:59;99672.78;;;10.68;100.00
54389;BME280;40975;50.390;8.640;2024-02-04T12:05:25;99678.50;;;10.63;100.00
54389;BME280;40975;50.390;8.640;2024-02-04T12:07:51;99688.09;;;10.54;100.00
54389;BME280;40975;50.390;8.640;2024-02-04T12:10:16;99694.34;;;10.75;100.00
54389;BME280;40975;50.390;8.640;2024-02-04T12:12:42;99696.50;;;10.91;100.00
54389;BME280;40975;50.390;8.640;2024-02-04T12:15:07;99694.34;;;10.75;100.00
54389;BME280;40975;50.390;8.640;2024-02-04T12:17:32;99688.66;;;10.89;100.00
54389;BME280;40975;50.390;8.640;2024-02-04T12:19:58;99682.97;;;11.03;100.00
54389;BME280;40975;50.390;8.640;2024-02-04T12:22:23;99670.66;;;11.02;100.00
54389;BME280;40975;50.390;8.640;2024-02-04T12:24:49;99672.25;;;10.74;100.00
54389;BME280;40975;50.390;8.640;2024-02-04T12:27:15;99682.31;;;10.70;100.00
54389;BME280;40975;50.390;8.640;2024-02-04T12:29:41;99673.66;;;10.37;100.00
54389;BME280;40975;50.390;8.640;2024-02-04T12:32:06;99660.06;;;10.62;100.00
54389;BME280;40975;50.390;8.640;2024-02-04T12:34:32;99665.38;;;10.62;100.00
54389;BME280;40975;50.390;8.640;2024-02-04T12:37:02;99666.78;;;10.66;100.00
54389;BME280;40975;50.390;8.640;2024-02-04T12:39:28;99659.78;;;10.65;100.00
54389;BME280;40975;50.390;8.640;2024-02-04T12:41:54;99649.53;;;10.50;100.00
54389;BME280;40975;50.390;8.640;2024-02-04T12:44:19;99659.13;;;10.41;100.00
54389;BME280;40975;50.390;8.640;2024-02-04T12:46:45;99659.84;;;10.22;100.00
54389;BME280;40975;50.390;8.640;2024-02-04T12:49:18;99666.44;;;10.07;100.00
54389;BME280;40975;50.390;8.640;2024-02-04T12:51:44;99653.31;;;10.05;100.00
54389;BME280;40975;50.390;8.640;2024-02-04T12:54:10;99656.56;;;10.09;100.00
54389;BME280;40975;50.390;8.640;2024-02-04T12:56:49;99654.94;;;9.96;100.00
54389;BME280;40975;50.390;8.640;2024-02-04T12:59:30;99649.44;;;10.09;100.00